KSWF/SWF METAR and TAF weather

Enter ICAO airport designator
Station Type Date Time Source
KSWF METAR 2022/01/27 22:45 UTC NOAA

KSWF 272245Z 21004KT 10SM SKC M03/M13 A3024


Station Type Date Time Source
KSWF Decoded METAR 2022/01/27 22:45 UTC NOAA

Newburgh / Stewart, NY, United States (KSWF) 41-30N 074-06W
Jan 27, 2022 - 05:45 PM EST / 2022.01.27 2245 UTC
Wind: from the SSW (210 degrees) at 5 MPH (4 KT):0
Visibility: 10 mile(s):0
Sky conditions: clear
Temperature: 26 F (-3 C)
Windchill: 19 F (-7 C):1
Dew Point: 8 F (-13 C)
Relative Humidity: 45%
Pressure (altimeter): 30.24 in. Hg (1024 hPa)
ob: KSWF 272245Z 21004KT 10SM SKC M03/M13 A3024
cycle: 23

Station Type Date Time Source
KSWF TAF 2022/01/27 21:39 UTC NOAA

TAF
AMD KSWF 272036Z 2721/2824 22014KT P6SM SCT250
FM280300 23005KT P6SM BKN100
FM280600 24006KT P6SM OVC100
FM280900 25003KT P6SM OVC050
FM281400 28004KT P6SM BKN040
FM281700 28007KT P6SM BKN025 PROB30 2821/2824 5SM -SN OVC020
AMD NOT SKED

Example: see airport list